Schedule Details


Flight Number: CTN4437
Departure: Munich (EDDM) at 08:55
Arrival: Franjo Tudman (LDZA) at 10:05
Route: ROTAX L603 LATLO DCT BERTA DCT ARGOM

Weather Information
EDDM 190950Z 25027G40KT 9999 FEW030 BKN035 06/M00 Q1018 TEMPO RA
LDZA 190930Z VRB02KT CAVOK 08/01 Q1022 NOSIG
Schedule Frequency

Route Map